sensor_id;sensor_type;location;lat;lon;timestamp;temperature;humidity
2327;DHT22;1174;51.588;7.328;2022-08-19T00:01:20;19.30;99.90
2327;DHT22;1174;51.588;7.328;2022-08-19T00:03:48;19.40;99.90
2327;DHT22;1174;51.588;7.328;2022-08-19T00:06:15;19.40;99.90
2327;DHT22;1174;51.588;7.328;2022-08-19T00:08:43;19.40;99.90
2327;DHT22;1174;51.588;7.328;2022-08-19T00:11:10;19.30;99.90
2327;DHT22;1174;51.588;7.328;2022-08-19T00:13:38;19.30;99.90
2327;DHT22;1174;51.588;7.328;2022-08-19T00:16:05;19.30;99.90
2327;DHT22;1174;51.588;7.328;2022-08-19T00:18:33;19.30;99.90
2327;DHT22;1174;51.588;7.328;2022-08-19T00:21:00;19.40;99.90
2327;DHT22;1174;51.588;7.328;2022-08-19T00:23:27;19.30;99.90
2327;DHT22;1174;51.588;7.328;2022-08-19T00:25:56;19.40;99.90
2327;DHT22;1174;51.588;7.328;2022-08-19T00:28:22;19.30;99.90
2327;DHT22;1174;51.588;7.328;2022-08-19T00:30:49;19.40;99.90
2327;DHT22;1174;51.588;7.328;2022-08-19T00:33:18;19.40;99.90
2327;DHT22;1174;51.588;7.328;2022-08-19T00:35:45;19.40;99.90
2327;DHT22;1174;51.588;7.328;2022-08-19T00:38:12;19.10;99.90
2327;DHT22;1174;51.588;7.328;2022-08-19T00:40:40;18.90;99.90
2327;DHT22;1174;51.588;7.328;2022-08-19T00:43:11;18.90;99.90
2327;DHT22;1174;51.588;7.328;2022-08-19T00:45:39;18.90;99.90
2327;DHT22;1174;51.588;7.328;2022-08-19T00:48:09;18.90;99.90
2327;DHT22;1174;51.588;7.328;2022-08-19T00:50:37;19.10;99.90
2327;DHT22;1174;51.588;7.328;2022-08-19T00:53:06;19.10;99.90
2327;DHT22;1174;51.588;7.328;2022-08-19T00:55:33;19.10;99.90
2327;DHT22;1174;51.588;7.328;2022-08-19T00:58:04;19.10;99.90
2327;DHT22;1174;51.588;7.328;2022-08-19T01:00:34;19.10;99.90
2327;DHT22;1174;51.588;7.328;2022-08-19T01:03:03;19.20;99.90
2327;DHT22;1174;51.588;7.328;2022-08-19T01:05:31;19.10;99.90
2327;DHT22;1174;51.588;7.328;2022-08-19T01:08:01;19.10;99.90
2327;DHT22;1174;51.588;7.328;2022-08-19T01:10:31;19.00;99.90
2327;DHT22;1174;51.588;7.328;2022-08-19T01:13:00;18.90;99.90
2327;DHT22;1174;51.588;7.328;2022-08-19T01:15:31;18.90;99.90
2327;DHT22;1174;51.588;7.328;2022-08-19T01:18:02;18.80;99.90
2327;DHT22;1174;51.588;7.328;2022-08-19T01:20:30;18.70;99.90
2327;DHT22;1174;51.588;7.328;2022-08-19T01:23:02;18.70;99.90
2327;DHT22;1174;51.588;7.328;2022-08-19T01:25:31;18.60;99.90
2327;DHT22;1174;51.588;7.328;2022-08-19T01:27:58;18.60;99.90
2327;DHT22;1174;51.588;7.328;2022-08-19T01:30:32;18.50;99.90
2327;DHT22;1174;51.588;7.328;2022-08-19T01:32:59;18.60;99.90
2327;DHT22;1174;51.588;7.328;2022-08-19T01:35:29;18.50;99.90
2327;DHT22;1174;51.588;7.328;2022-08-19T01:37:58;18.60;99.90
2327;DHT22;1174;51.588;7.328;2022-08-19T01:40:29;18.70;99.90
2327;DHT22;1174;51.588;7.328;2022-08-19T01:42:56;18.70;99.90
2327;DHT22;1174;51.588;7.328;2022-08-19T01:45:25;18.70;99.90
2327;DHT22;1174;51.588;7.328;2022-08-19T01:47:53;18.80;99.90
2327;DHT22;1174;51.588;7.328;2022-08-19T01:50:20;18.80;99.90
2327;DHT22;1174;51.588;7.328;2022-08-19T01:52:47;18.90;99.90
2327;DHT22;1174;51.588;7.328;2022-08-19T01:55:17;18.80;99.90
2327;DHT22;1174;51.588;7.328;2022-08-19T01:57:52;18.80;99.90
2327;DHT22;1174;51.588;7.328;2022-08-19T02:00:22;18.80;99.90
2327;DHT22;1174;51.588;7.328;2022-08-19T02:02:49;18.80;99.90
2327;DHT22;1174;51.588;7.328;2022-08-19T02:05:16;18.60;99.90
2327;DHT22;1174;51.588;7.328;2022-08-19T02:07:44;18.50;99.90
2327;DHT22;1174;51.588;7.328;2022-08-19T02:10:15;18.60;99.90
2327;DHT22;1174;51.588;7.328;2022-08-19T02:12:42;18.60;99.90
2327;DHT22;1174;51.588;7.328;2022-08-19T02:15:11;18.70;99.90
2327;DHT22;1174;51.588;7.328;2022-08-19T02:17:38;18.70;99.90
2327;DHT22;1174;51.588;7.328;2022-08-19T02:20:06;18.60;99.90
2327;DHT22;1174;51.588;7.328;2022-08-19T02:22:36;18.50;99.90
2327;DHT22;1174;51.588;7.328;2022-08-19T02:25:08;18.50;99.90
2327;DHT22;1174;51.588;7.328;2022-08-19T02:27:35;18.60;99.90
2327;DHT22;1174;51.588;7.328;2022-08-19T02:30:04;18.60;99.90
2327;DHT22;1174;51.588;7.328;2022-08-19T02:32:33;18.60;99.90
2327;DHT22;1174;51.588;7.328;2022-08-19T02:35:00;18.70;99.90
2327;DHT22;1174;51.588;7.328;2022-08-19T02:37:27;18.50;99.90
2327;DHT22;1174;51.588;7.328;2022-08-19T02:43:34;18.30;99.90
2327;DHT22;1174;51.588;7.328;2022-08-19T02:46:01;18.30;99.90
2327;DHT22;1174;51.588;7.328;2022-08-19T02:48:30;18.40;99.90
2327;DHT22;1174;51.588;7.328;2022-08-19T02:51:00;18.50;99.90
2327;DHT22;1174;51.588;7.328;2022-08-19T02:53:27;18.20;99.90
2327;DHT22;1174;51.588;7.328;2022-08-19T02:55:54;18.00;99.90
2327;DHT22;1174;51.588;7.328;2022-08-19T02:58:21;17.90;99.90
2327;DHT22;1174;51.588;7.328;2022-08-19T03:00:50;17.80;99.90
2327;DHT22;1174;51.588;7.328;2022-08-19T03:03:18;18.10;99.90
2327;DHT22;1174;51.588;7.328;2022-08-19T03:05:47;18.10;99.90
2327;DHT22;1174;51.588;7.328;2022-08-19T03:08:14;18.10;99.90
2327;DHT22;1174;51.588;7.328;2022-08-19T03:10:43;18.00;99.90
2327;DHT22;1174;51.588;7.328;2022-08-19T03:13:12;18.20;99.90
2327;DHT22;1174;51.588;7.328;2022-08-19T03:15:40;18.10;99.90
2327;DHT22;1174;51.588;7.328;2022-08-19T03:18:07;18.00;99.90
2327;DHT22;1174;51.588;7.328;2022-08-19T03:20:40;18.10;99.90
2327;DHT22;1174;51.588;7.328;2022-08-19T03:23:08;18.20;99.90
2327;DHT22;1174;51.588;7.328;2022-08-19T03:25:37;18.20;99.90
2327;DHT22;1174;51.588;7.328;2022-08-19T03:28:05;18.20;99.90
2327;DHT22;1174;51.588;7.328;2022-08-19T03:30:33;17.80;99.90
2327;DHT22;1174;51.588;7.328;2022-08-19T03:33:00;17.80;99.90
2327;DHT22;1174;51.588;7.328;2022-08-19T03:35:27;17.70;99.90
2327;DHT22;1174;51.588;7.328;2022-08-19T03:37:54;17.70;99.90
2327;DHT22;1174;51.588;7.328;2022-08-19T03:40:24;17.60;99.90
2327;DHT22;1174;51.588;7.328;2022-08-19T03:42:51;17.60;99.90
2327;DHT22;1174;51.588;7.328;2022-08-19T03:45:18;17.80;99.90
2327;DHT22;1174;51.588;7.328;2022-08-19T03:47:45;18.00;99.90
2327;DHT22;1174;51.588;7.328;2022-08-19T03:50:12;18.00;99.90
2327;DHT22;1174;51.588;7.328;2022-08-19T03:52:39;18.20;99.90
2327;DHT22;1174;51.588;7.328;2022-08-19T03:55:06;18.10;99.90
2327;DHT22;1174;51.588;7.328;2022-08-19T03:57:35;18.00;99.90
2327;DHT22;1174;51.588;7.328;2022-08-19T04:00:04;18.00;99.90
2327;DHT22;1174;51.588;7.328;2022-08-19T04:02:32;18.00;99.90
2327;DHT22;1174;51.588;7.328;2022-08-19T04:04:58;18.00;99.90
2327;DHT22;1174;51.588;7.328;2022-08-19T04:07:25;17.70;99.90
2327;DHT22;1174;51.588;7.328;2022-08-19T04:09:52;17.90;99.90
2327;DHT22;1174;51.588;7.328;2022-08-19T04:12:19;17.90;99.90
2327;DHT22;1174;51.588;7.328;2022-08-19T04:14:48;18.00;99.90
2327;DHT22;1174;51.588;7.328;2022-08-19T04:17:15;18.00;99.90
2327;DHT22;1174;51.588;7.328;2022-08-19T04:19:42;18.00;99.90
2327;DHT22;1174;51.588;7.328;2022-08-19T04:22:09;18.00;99.90
2327;DHT22;1174;51.588;7.328;2022-08-19T04:24:37;17.90;99.90
2327;DHT22;1174;51.588;7.328;2022-08-19T04:27:05;17.90;99.90
2327;DHT22;1174;51.588;7.328;2022-08-19T04:29:32;17.90;99.90
2327;DHT22;1174;51.588;7.328;2022-08-19T04:32:01;17.90;99.90
2327;DHT22;1174;51.588;7.328;2022-08-19T04:34:29;17.70;99.90
2327;DHT22;1174;51.588;7.328;2022-08-19T04:36:58;17.50;99.90
2327;DHT22;1174;51.588;7.328;2022-08-19T04:39:27;17.60;99.90
2327;DHT22;1174;51.588;7.328;2022-08-19T04:42:16;17.80;99.90
2327;DHT22;1174;51.588;7.328;2022-08-19T04:45:01;17.90;99.90
2327;DHT22;1174;51.588;7.328;2022-08-19T04:47:30;17.80;99.90
2327;DHT22;1174;51.588;7.328;2022-08-19T04:49:58;17.80;99.90
2327;DHT22;1174;51.588;7.328;2022-08-19T04:52:25;17.90;99.90
2327;DHT22;1174;51.588;7.328;2022-08-19T04:54:52;17.80;99.90
2327;DHT22;1174;51.588;7.328;2022-08-19T04:57:21;17.90;99.90
2327;DHT22;1174;51.588;7.328;2022-08-19T04:59:48;18.00;99.90
2327;DHT22;1174;51.588;7.328;2022-08-19T05:02:15;18.10;99.90
2327;DHT22;1174;51.588;7.328;2022-08-19T05:04:43;18.30;99.90
2327;DHT22;1174;51.588;7.328;2022-08-19T05:07:10;18.30;99.90
2327;DHT22;1174;51.588;7.328;2022-08-19T05:09:37;18.50;99.90
2327;DHT22;1174;51.588;7.328;2022-08-19T05:12:04;18.50;99.90
2327;DHT22;1174;51.588;7.328;2022-08-19T05:14:32;18.60;99.90
2327;DHT22;1174;51.588;7.328;2022-08-19T05:17:00;18.60;99.90
2327;DHT22;1174;51.588;7.328;2022-08-19T05:19:27;18.70;99.90
2327;DHT22;1174;51.588;7.328;2022-08-19T05:22:13;18.90;99.90
2327;DHT22;1174;51.588;7.328;2022-08-19T05:24:57;18.90;99.90
2327;DHT22;1174;51.588;7.328;2022-08-19T05:27:24;19.10;99.90
2327;DHT22;1174;51.588;7.328;2022-08-19T05:29:51;19.30;99.90
2327;DHT22;1174;51.588;7.328;2022-08-19T05:32:18;19.30;99.90
2327;DHT22;1174;51.588;7.328;2022-08-19T05:34:45;19.00;99.90
2327;DHT22;1174;51.588;7.328;2022-08-19T05:37:13;18.80;99.90
2327;DHT22;1174;51.588;7.328;2022-08-19T05:39:40;18.80;99.90
2327;DHT22;1174;51.588;7.328;2022-08-19T05:42:09;18.90;99.90
2327;DHT22;1174;51.588;7.328;2022-08-19T05:44:38;19.10;99.90
2327;DHT22;1174;51.588;7.328;2022-08-19T05:47:07;19.60;99.90
2327;DHT22;1174;51.588;7.328;2022-08-19T05:49:36;19.90;99.90
2327;DHT22;1174;51.588;7.328;2022-08-19T05:52:03;20.30;99.90
2327;DHT22;1174;51.588;7.328;2022-08-19T05:54:32;20.90;99.90
2327;DHT22;1174;51.588;7.328;2022-08-19T05:57:00;21.40;99.90
2327;DHT22;1174;51.588;7.328;2022-08-19T05:59:29;21.80;99.90
2327;DHT22;1174;51.588;7.328;2022-08-19T06:01:56;21.90;99.90
2327;DHT22;1174;51.588;7.328;2022-08-19T06:04:23;21.90;99.90
2327;DHT22;1174;51.588;7.328;2022-08-19T06:06:52;21.90;99.90
2327;DHT22;1174;51.588;7.328;2022-08-19T06:09:20;22.20;99.90
2327;DHT22;1174;51.588;7.328;2022-08-19T06:11:51;22.20;99.90
2327;DHT22;1174;51.588;7.328;2022-08-19T06:14:21;22.20;99.90
2327;DHT22;1174;51.588;7.328;2022-08-19T06:16:49;22.00;99.90
2327;DHT22;1174;51.588;7.328;2022-08-19T06:19:19;22.10;99.90
2327;DHT22;1174;51.588;7.328;2022-08-19T06:21:48;22.20;99.90
2327;DHT22;1174;51.588;7.328;2022-08-19T06:24:18;22.00;99.90
2327;DHT22;1174;51.588;7.328;2022-08-19T06:26:48;22.20;99.90
2327;DHT22;1174;51.588;7.328;2022-08-19T06:29:16;22.20;99.90
2327;DHT22;1174;51.588;7.328;2022-08-19T06:31:46;22.20;99.90
2327;DHT22;1174;51.588;7.328;2022-08-19T06:34:16;22.50;99.90
2327;DHT22;1174;51.588;7.328;2022-08-19T06:36:45;23.00;99.90
2327;DHT22;1174;51.588;7.328;2022-08-19T06:39:14;23.50;99.90
2327;DHT22;1174;51.588;7.328;2022-08-19T06:41:44;24.00;99.90
2327;DHT22;1174;51.588;7.328;2022-08-19T06:44:15;24.50;99.90
2327;DHT22;1174;51.588;7.328;2022-08-19T06:46:42;24.90;99.90
2327;DHT22;1174;51.588;7.328;2022-08-19T06:49:09;25.00;99.90
2327;DHT22;1174;51.588;7.328;2022-08-19T06:51:39;25.20;99.90
2327;DHT22;1174;51.588;7.328;2022-08-19T06:54:06;25.00;99.90
2327;DHT22;1174;51.588;7.328;2022-08-19T06:56:33;25.10;99.90
2327;DHT22;1174;51.588;7.328;2022-08-19T06:59:01;25.40;99.90
2327;DHT22;1174;51.588;7.328;2022-08-19T07:01:29;25.90;99.90
2327;DHT22;1174;51.588;7.328;2022-08-19T07:03:56;26.30;99.90
2327;DHT22;1174;51.588;7.328;2022-08-19T07:06:23;27.00;99.90
2327;DHT22;1174;51.588;7.328;2022-08-19T07:08:51;26.70;99.90
2327;DHT22;1174;51.588;7.328;2022-08-19T07:11:18;26.20;99.90
2327;DHT22;1174;51.588;7.328;2022-08-19T07:13:46;26.30;99.90
2327;DHT22;1174;51.588;7.328;2022-08-19T07:16:17;26.10;99.90
2327;DHT22;1174;51.588;7.328;2022-08-19T07:18:47;25.80;99.90
2327;DHT22;1174;51.588;7.328;2022-08-19T07:21:17;25.90;99.90
2327;DHT22;1174;51.588;7.328;2022-08-19T07:23:44;26.10;99.90
2327;DHT22;1174;51.588;7.328;2022-08-19T07:26:14;26.90;99.90
2327;DHT22;1174;51.588;7.328;2022-08-19T07:28:42;27.20;99.90
2327;DHT22;1174;51.588;7.328;2022-08-19T07:31:11;27.40;99.90
2327;DHT22;1174;51.588;7.328;2022-08-19T07:33:39;27.30;99.90
2327;DHT22;1174;51.588;7.328;2022-08-19T07:36:09;26.90;99.90
2327;DHT22;1174;51.588;7.328;2022-08-19T07:38:38;26.80;99.90
2327;DHT22;1174;51.588;7.328;2022-08-19T07:41:06;26.60;99.90
2327;DHT22;1174;51.588;7.328;2022-08-19T07:43:33;26.50;99.90
2327;DHT22;1174;51.588;7.328;2022-08-19T07:46:00;26.50;99.90
2327;DHT22;1174;51.588;7.328;2022-08-19T07:48:27;26.10;99.90
2327;DHT22;1174;51.588;7.328;2022-08-19T07:50:56;25.90;99.90
2327;DHT22;1174;51.588;7.328;2022-08-19T07:53:26;25.90;99.90
2327;DHT22;1174;51.588;7.328;2022-08-19T07:55:53;26.10;99.90
2327;DHT22;1174;51.588;7.328;2022-08-19T07:58:21;25.90;99.90
2327;DHT22;1174;51.588;7.328;2022-08-19T08:00:50;26.40;99.90
2327;DHT22;1174;51.588;7.328;2022-08-19T08:03:20;26.40;99.90
2327;DHT22;1174;51.588;7.328;2022-08-19T08:06:07;26.70;99.90
2327;DHT22;1174;51.588;7.328;2022-08-19T08:08:53;27.10;99.90
2327;DHT22;1174;51.588;7.328;2022-08-19T08:11:46;28.20;99.90
2327;DHT22;1174;51.588;7.328;2022-08-19T08:14:15;28.20;99.90
2327;DHT22;1174;51.588;7.328;2022-08-19T08:16:43;28.30;99.90
2327;DHT22;1174;51.588;7.328;2022-08-19T08:19:11;28.00;99.90
2327;DHT22;1174;51.588;7.328;2022-08-19T08:21:41;27.40;99.90
2327;DHT22;1174;51.588;7.328;2022-08-19T08:24:10;27.80;99.90
2327;DHT22;1174;51.588;7.328;2022-08-19T08:26:37;28.50;99.90
2327;DHT22;1174;51.588;7.328;2022-08-19T08:29:05;29.00;99.90
2327;DHT22;1174;51.588;7.328;2022-08-19T08:31:32;28.70;99.90
2327;DHT22;1174;51.588;7.328;2022-08-19T08:34:00;28.90;99.90
2327;DHT22;1174;51.588;7.328;2022-08-19T08:36:27;29.40;99.90
2327;DHT22;1174;51.588;7.328;2022-08-19T08:38:54;30.00;99.90
2327;DHT22;1174;51.588;7.328;2022-08-19T08:41:30;29.70;99.90
2327;DHT22;1174;51.588;7.328;2022-08-19T08:43:58;30.10;99.90
2327;DHT22;1174;51.588;7.328;2022-08-19T08:46:32;30.20;99.90
2327;DHT22;1174;51.588;7.328;2022-08-19T08:49:06;30.90;99.90
2327;DHT22;1174;51.588;7.328;2022-08-19T08:51:42;30.70;99.90
2327;DHT22;1174;51.588;7.328;2022-08-19T08:54:13;31.00;99.90
2327;DHT22;1174;51.588;7.328;2022-08-19T08:56:42;31.00;99.90
2327;DHT22;1174;51.588;7.328;2022-08-19T08:59:15;31.60;99.90
2327;DHT22;1174;51.588;7.328;2022-08-19T09:01:43;32.00;99.90
2327;DHT22;1174;51.588;7.328;2022-08-19T09:04:11;32.40;99.90
2327;DHT22;1174;51.588;7.328;2022-08-19T09:06:44;31.60;99.90
2327;DHT22;1174;51.588;7.328;2022-08-19T09:09:18;31.40;99.90
2327;DHT22;1174;51.588;7.328;2022-08-19T09:12:02;30.20;99.90
2327;DHT22;1174;51.588;7.328;2022-08-19T09:14:36;30.80;99.90
2327;DHT22;1174;51.588;7.328;2022-08-19T09:17:07;31.10;99.90
2327;DHT22;1174;51.588;7.328;2022-08-19T09:19:35;30.90;99.90
2327;DHT22;1174;51.588;7.328;2022-08-19T09:22:02;31.20;99.90
2327;DHT22;1174;51.588;7.328;2022-08-19T09:24:30;31.40;99.90
2327;DHT22;1174;51.588;7.328;2022-08-19T09:26:58;32.40;99.90
2327;DHT22;1174;51.588;7.328;2022-08-19T09:29:25;32.00;99.90
2327;DHT22;1174;51.588;7.328;2022-08-19T09:31:53;32.00;99.90
2327;DHT22;1174;51.588;7.328;2022-08-19T09:34:20;31.70;99.90
2327;DHT22;1174;51.588;7.328;2022-08-19T09:36:47;31.30;99.90
2327;DHT22;1174;51.588;7.328;2022-08-19T09:39:18;31.90;99.90
2327;DHT22;1174;51.588;7.328;2022-08-19T09:41:45;32.70;99.90
2327;DHT22;1174;51.588;7.328;2022-08-19T09:44:13;33.20;99.90
2327;DHT22;1174;51.588;7.328;2022-08-19T09:46:40;33.10;99.90
2327;DHT22;1174;51.588;7.328;2022-08-19T09:49:07;33.00;99.90
2327;DHT22;1174;51.588;7.328;2022-08-19T09:51:34;32.70;99.60
2327;DHT22;1174;51.588;7.328;2022-08-19T09:54:02;31.40;99.90
2327;DHT22;1174;51.588;7.328;2022-08-19T09:56:31;30.10;99.90
2327;DHT22;1174;51.588;7.328;2022-08-19T09:58:58;29.40;99.90
2327;DHT22;1174;51.588;7.328;2022-08-19T10:01:28;28.90;99.90
2327;DHT22;1174;51.588;7.328;2022-08-19T10:03:57;29.20;99.90
2327;DHT22;1174;51.588;7.328;2022-08-19T10:06:28;30.30;99.90
2327;DHT22;1174;51.588;7.328;2022-08-19T10:08:58;31.10;99.90
2327;DHT22;1174;51.588;7.328;2022-08-19T10:11:25;31.30;99.90
2327;DHT22;1174;51.588;7.328;2022-08-19T10:13:53;32.50;99.90
2327;DHT22;1174;51.588;7.328;2022-08-19T10:16:22;33.40;98.90
2327;DHT22;1174;51.588;7.328;2022-08-19T10:18:51;33.60;98.30
2327;DHT22;1174;51.588;7.328;2022-08-19T10:21:21;34.70;97.50
2327;DHT22;1174;51.588;7.328;2022-08-19T10:23:52;35.10;96.40
2327;DHT22;1174;51.588;7.328;2022-08-19T10:26:22;34.20;95.40
2327;DHT22;1174;51.588;7.328;2022-08-19T10:28:49;33.20;96.10
2327;DHT22;1174;51.588;7.328;2022-08-19T10:31:19;32.20;97.70
2327;DHT22;1174;51.588;7.328;2022-08-19T10:33:46;31.00;98.70
2327;DHT22;1174;51.588;7.328;2022-08-19T10:36:17;30.60;99.90
2327;DHT22;1174;51.588;7.328;2022-08-19T10:38:46;30.60;99.90
2327;DHT22;1174;51.588;7.328;2022-08-19T10:41:17;30.80;99.90
2327;DHT22;1174;51.588;7.328;2022-08-19T10:43:44;30.80;99.90
2327;DHT22;1174;51.588;7.328;2022-08-19T10:46:13;31.50;99.90
2327;DHT22;1174;51.588;7.328;2022-08-19T10:48:40;31.40;99.20
2327;DHT22;1174;51.588;7.328;2022-08-19T10:51:09;31.70;99.60
2327;DHT22;1174;51.588;7.328;2022-08-19T10:53:55;32.60;99.70
2327;DHT22;1174;51.588;7.328;2022-08-19T10:56:23;33.40;96.80
2327;DHT22;1174;51.588;7.328;2022-08-19T10:59:08;32.60;95.90
2327;DHT22;1174;51.588;7.328;2022-08-19T11:01:39;30.90;96.70
2327;DHT22;1174;51.588;7.328;2022-08-19T11:04:06;30.60;97.90
2327;DHT22;1174;51.588;7.328;2022-08-19T11:06:37;31.00;97.10
2327;DHT22;1174;51.588;7.328;2022-08-19T11:09:05;32.50;95.00
2327;DHT22;1174;51.588;7.328;2022-08-19T11:11:32;33.10;95.00
2327;DHT22;1174;51.588;7.328;2022-08-19T11:14:04;33.60;93.50
2327;DHT22;1174;51.588;7.328;2022-08-19T11:16:31;34.10;94.00
2327;DHT22;1174;51.588;7.328;2022-08-19T11:18:59;34.70;92.20
2327;DHT22;1174;51.588;7.328;2022-08-19T11:21:28;34.50;91.40
2327;DHT22;1174;51.588;7.328;2022-08-19T11:23:58;34.40;92.00
2327;DHT22;1174;51.588;7.328;2022-08-19T11:26:27;34.60;91.20
2327;DHT22;1174;51.588;7.328;2022-08-19T11:28:55;34.60;90.20
2327;DHT22;1174;51.588;7.328;2022-08-19T11:31:24;34.90;89.80
2327;DHT22;1174;51.588;7.328;2022-08-19T11:33:51;34.90;86.80
2327;DHT22;1174;51.588;7.328;2022-08-19T11:36:20;35.30;85.60
2327;DHT22;1174;51.588;7.328;2022-08-19T11:38:47;35.80;80.20
2327;DHT22;1174;51.588;7.328;2022-08-19T11:41:16;35.30;81.10
2327;DHT22;1174;51.588;7.328;2022-08-19T11:43:44;35.60;80.60
2327;DHT22;1174;51.588;7.328;2022-08-19T11:46:14;35.30;80.30
2327;DHT22;1174;51.588;7.328;2022-08-19T11:48:41;35.60;83.00
2327;DHT22;1174;51.588;7.328;2022-08-19T11:51:10;35.10;83.20
2327;DHT22;1174;51.588;7.328;2022-08-19T11:53:38;35.40;84.30
2327;DHT22;1174;51.588;7.328;2022-08-19T11:56:06;36.30;81.80
2327;DHT22;1174;51.588;7.328;2022-08-19T11:58:34;36.10;79.80
2327;DHT22;1174;51.588;7.328;2022-08-19T12:01:05;36.20;78.30
2327;DHT22;1174;51.588;7.328;2022-08-19T12:03:33;35.10;78.30
2327;DHT22;1174;51.588;7.328;2022-08-19T12:06:03;34.90;82.00
2327;DHT22;1174;51.588;7.328;2022-08-19T12:08:30;35.10;77.30
2327;DHT22;1174;51.588;7.328;2022-08-19T12:10:57;35.90;77.00
2327;DHT22;1174;51.588;7.328;2022-08-19T12:13:26;37.30;74.80
2327;DHT22;1174;51.588;7.328;2022-08-19T12:15:53;36.90;72.70
2327;DHT22;1174;51.588;7.328;2022-08-19T12:18:22;36.10;74.70
2327;DHT22;1174;51.588;7.328;2022-08-19T12:20:50;35.90;73.40
2327;DHT22;1174;51.588;7.328;2022-08-19T12:23:18;35.80;73.60
2327;DHT22;1174;51.588;7.328;2022-08-19T12:25:46;35.80;76.00
2327;DHT22;1174;51.588;7.328;2022-08-19T12:28:15;36.00;76.70
2327;DHT22;1174;51.588;7.328;2022-08-19T12:30:43;37.20;74.70
2327;DHT22;1174;51.588;7.328;2022-08-19T12:33:09;37.90;70.80
2327;DHT22;1174;51.588;7.328;2022-08-19T12:35:40;36.80;67.30
2327;DHT22;1174;51.588;7.328;2022-08-19T12:38:07;35.20;72.20
2327;DHT22;1174;51.588;7.328;2022-08-19T12:40:34;35.20;71.90
2327;DHT22;1174;51.588;7.328;2022-08-19T12:43:01;34.00;75.60
2327;DHT22;1174;51.588;7.328;2022-08-19T12:45:28;34.00;74.70
2327;DHT22;1174;51.588;7.328;2022-08-19T12:47:55;33.80;74.80
2327;DHT22;1174;51.588;7.328;2022-08-19T12:50:22;34.30;73.60
2327;DHT22;1174;51.588;7.328;2022-08-19T12:52:50;35.00;71.90
2327;DHT22;1174;51.588;7.328;2022-08-19T12:55:17;34.90;71.00
2327;DHT22;1174;51.588;7.328;2022-08-19T12:57:45;34.80;67.70
2327;DHT22;1174;51.588;7.328;2022-08-19T13:00:16;35.50;66.40
2327;DHT22;1174;51.588;7.328;2022-08-19T13:02:45;36.40;64.00
2327;DHT22;1174;51.588;7.328;2022-08-19T13:05:15;36.80;62.60
2327;DHT22;1174;51.588;7.328;2022-08-19T13:07:43;36.10;62.20
2327;DHT22;1174;51.588;7.328;2022-08-19T13:10:14;36.20;61.70
2327;DHT22;1174;51.588;7.328;2022-08-19T13:12:41;36.90;61.00
2327;DHT22;1174;51.588;7.328;2022-08-19T13:15:09;37.20;59.90
2327;DHT22;1174;51.588;7.328;2022-08-19T13:17:36;37.90;62.10
2327;DHT22;1174;51.588;7.328;2022-08-19T13:20:04;37.80;61.30
2327;DHT22;1174;51.588;7.328;2022-08-19T13:22:32;37.40;61.90
2327;DHT22;1174;51.588;7.328;2022-08-19T13:25:01;37.00;62.80
2327;DHT22;1174;51.588;7.328;2022-08-19T13:27:30;35.80;63.50
2327;DHT22;1174;51.588;7.328;2022-08-19T13:29:57;35.70;66.10
2327;DHT22;1174;51.588;7.328;2022-08-19T13:32:41;35.30;66.20
2327;DHT22;1174;51.588;7.328;2022-08-19T13:35:26;35.60;66.90
2327;DHT22;1174;51.588;7.328;2022-08-19T13:37:53;36.30;66.90
2327;DHT22;1174;51.588;7.328;2022-08-19T13:40:23;36.60;65.20
2327;DHT22;1174;51.588;7.328;2022-08-19T13:42:54;37.10;63.30
2327;DHT22;1174;51.588;7.328;2022-08-19T13:45:23;36.80;63.50
2327;DHT22;1174;51.588;7.328;2022-08-19T13:47:54;36.30;64.00
2327;DHT22;1174;51.588;7.328;2022-08-19T13:50:24;35.50;66.50
2327;DHT22;1174;51.588;7.328;2022-08-19T13:52:51;36.00;64.60
2327;DHT22;1174;51.588;7.328;2022-08-19T13:55:19;36.20;61.90
2327;DHT22;1174;51.588;7.328;2022-08-19T13:57:50;35.60;62.60
2327;DHT22;1174;51.588;7.328;2022-08-19T14:00:19;35.80;62.50
2327;DHT22;1174;51.588;7.328;2022-08-19T14:02:47;36.10;61.70
2327;DHT22;1174;51.588;7.328;2022-08-19T14:05:15;36.30;61.80
2327;DHT22;1174;51.588;7.328;2022-08-19T14:07:42;37.00;61.70
2327;DHT22;1174;51.588;7.328;2022-08-19T14:10:11;36.20;62.50
2327;DHT22;1174;51.588;7.328;2022-08-19T14:12:39;35.40;62.20
2327;DHT22;1174;51.588;7.328;2022-08-19T14:15:08;34.80;64.10
2327;DHT22;1174;51.588;7.328;2022-08-19T14:17:39;35.00;62.90
2327;DHT22;1174;51.588;7.328;2022-08-19T14:20:08;35.50;61.00
2327;DHT22;1174;51.588;7.328;2022-08-19T14:22:35;36.00;61.20
2327;DHT22;1174;51.588;7.328;2022-08-19T14:25:03;36.00;60.40
2327;DHT22;1174;51.588;7.328;2022-08-19T14:27:32;36.40;58.90
2327;DHT22;1174;51.588;7.328;2022-08-19T14:29:59;36.60;58.60
2327;DHT22;1174;51.588;7.328;2022-08-19T14:32:26;36.50;59.20
2327;DHT22;1174;51.588;7.328;2022-08-19T14:34:54;36.10;58.60
2327;DHT22;1174;51.588;7.328;2022-08-19T14:37:21;35.80;59.00
2327;DHT22;1174;51.588;7.328;2022-08-19T14:39:48;35.40;59.60
2327;DHT22;1174;51.588;7.328;2022-08-19T14:42:15;34.60;61.30
2327;DHT22;1174;51.588;7.328;2022-08-19T14:44:42;33.90;62.50
2327;DHT22;1174;51.588;7.328;2022-08-19T14:47:09;32.80;64.70
2327;DHT22;1174;51.588;7.328;2022-08-19T14:49:37;32.50;65.10
2327;DHT22;1174;51.588;7.328;2022-08-19T14:52:06;32.40;66.20
2327;DHT22;1174;51.588;7.328;2022-08-19T14:54:32;31.90;66.60
2327;DHT22;1174;51.588;7.328;2022-08-19T14:56:59;31.90;67.20
2327;DHT22;1174;51.588;7.328;2022-08-19T14:59:26;31.90;67.40
2327;DHT22;1174;51.588;7.328;2022-08-19T15:01:53;32.10;67.60
2327;DHT22;1174;51.588;7.328;2022-08-19T15:04:20;31.70;67.90
2327;DHT22;1174;51.588;7.328;2022-08-19T15:06:47;31.30;68.40
2327;DHT22;1174;51.588;7.328;2022-08-19T15:09:17;31.00;70.20
2327;DHT22;1174;51.588;7.328;2022-08-19T15:11:44;30.80;70.50
2327;DHT22;1174;51.588;7.328;2022-08-19T15:14:11;30.30;72.30
2327;DHT22;1174;51.588;7.328;2022-08-19T15:16:39;30.50;71.90
2327;DHT22;1174;51.588;7.328;2022-08-19T15:19:07;30.40;72.80
2327;DHT22;1174;51.588;7.328;2022-08-19T15:21:34;30.30;72.20
2327;DHT22;1174;51.588;7.328;2022-08-19T15:24:03;30.80;72.50
2327;DHT22;1174;51.588;7.328;2022-08-19T15:26:31;31.00;72.70
2327;DHT22;1174;51.588;7.328;2022-08-19T15:28:59;31.00;72.80
2327;DHT22;1174;51.588;7.328;2022-08-19T15:31:27;30.50;72.50
2327;DHT22;1174;51.588;7.328;2022-08-19T15:33:54;30.20;72.70
2327;DHT22;1174;51.588;7.328;2022-08-19T15:36:23;30.40;73.30
2327;DHT22;1174;51.588;7.328;2022-08-19T15:38:50;30.60;73.50
2327;DHT22;1174;51.588;7.328;2022-08-19T15:41:22;30.50;73.90
2327;DHT22;1174;51.588;7.328;2022-08-19T15:43:52;30.60;75.80
2327;DHT22;1174;51.588;7.328;2022-08-19T15:46:24;30.30;76.10
2327;DHT22;1174;51.588;7.328;2022-08-19T15:48:53;30.10;76.00
2327;DHT22;1174;51.588;7.328;2022-08-19T15:51:21;30.00;76.80
2327;DHT22;1174;51.588;7.328;2022-08-19T15:53:48;30.00;77.50
2327;DHT22;1174;51.588;7.328;2022-08-19T15:56:15;29.60;78.20
2327;DHT22;1174;51.588;7.328;2022-08-19T15:58:43;29.80;79.20
2327;DHT22;1174;51.588;7.328;2022-08-19T16:01:29;30.00;80.10
2327;DHT22;1174;51.588;7.328;2022-08-19T16:04:13;30.00;79.50
2327;DHT22;1174;51.588;7.328;2022-08-19T16:06:59;29.60;79.70
2327;DHT22;1174;51.588;7.328;2022-08-19T16:09:29;29.60;80.80
2327;DHT22;1174;51.588;7.328;2022-08-19T16:12:00;29.60;81.50
2327;DHT22;1174;51.588;7.328;2022-08-19T16:14:28;29.70;82.20
2327;DHT22;1174;51.588;7.328;2022-08-19T16:16:58;29.80;82.60